Midland, Oregon
Current Conditions -  °F | °C
As of 1:53 AM on Tuesday 21 Oct 2014 (Local Time) from KLMT Reporting Station
Scattered Clouds Scattered Clouds  
Wind Chill: 34°   Ceiling: Unl
Heat Index: 40°   Visibility: 10mi
Dew Point: 36°   Wind: 8mph
Humidity: 86%   Direction: 240°WSW
Pressure: 30.01"   Gusts: NA
Location:  42.13°N, 121.82°W
Report Text: KLMT 210853Z AUTO 24007KT 10SM FEW033 SCT042 04/02 A3001 RMK AO2 SLP153 T00440022 51017
Loading
Personal Weather Stations






























Interactive Weather Map
Tropical Storm Tracking
New forecast layout! Learn more

10-Day Weather Forecast

Advertisements
Track Severe Weather on mobile